createdAt,value
2019-05-12T00:01:11.478Z,97.50
2019-05-12T00:03:13.616Z,97.70
2019-05-12T00:05:18.184Z,97.80
2019-05-12T00:07:19.240Z,97.90
2019-05-12T00:09:20.927Z,97.60
2019-05-12T00:11:22.664Z,97.90
2019-05-12T00:13:24.400Z,98.10
2019-05-12T00:15:27.989Z,98.20
2019-05-12T00:17:29.859Z,98.10
2019-05-12T00:19:31.608Z,98.00
2019-05-12T00:21:33.467Z,98.10
2019-05-12T00:23:54.845Z,97.90
2019-05-12T00:25:58.826Z,98.00
2019-05-12T00:28:00.341Z,97.80
2019-05-12T00:30:03.279Z,98.00
2019-05-12T00:32:04.984Z,97.80
2019-05-12T00:34:07.806Z,98.00
2019-05-12T00:36:09.881Z,98.30
2019-05-12T00:38:11.592Z,98.30
2019-05-12T00:40:13.491Z,98.30
2019-05-12T00:42:15.204Z,98.30
2019-05-12T00:44:18.394Z,98.30
2019-05-12T00:46:20.336Z,98.30
2019-05-12T00:48:22.032Z,98.30
2019-05-12T00:50:23.730Z,98.30
2019-05-12T00:52:28.029Z,98.30
2019-05-12T00:54:29.146Z,98.30
2019-05-12T00:56:30.844Z,98.30
2019-05-12T00:58:32.664Z,98.30
2019-05-12T01:00:34.456Z,98.30
2019-05-12T01:02:37.937Z,98.30
2019-05-12T01:04:40.190Z,98.30
2019-05-12T01:06:42.142Z,98.30
2019-05-12T01:08:43.945Z,98.30
2019-05-12T01:10:47.776Z,98.30
2019-05-12T01:12:49.364Z,98.30
2019-05-12T01:14:51.070Z,98.30
2019-05-12T01:16:52.774Z,98.30
2019-05-12T01:18:54.452Z,98.30
2019-05-12T01:20:58.241Z,98.30
2019-05-12T01:22:59.876Z,98.30
2019-05-12T01:25:01.673Z,98.30
2019-05-12T01:27:03.864Z,98.30
2019-05-12T01:29:05.560Z,98.30
2019-05-12T01:31:09.142Z,98.30
2019-05-12T01:33:10.857Z,98.30
2019-05-12T01:35:12.761Z,98.30
2019-05-12T01:37:23.174Z,98.30
2019-05-12T01:39:24.858Z,98.30
2019-05-12T01:41:28.667Z,98.30
2019-05-12T01:43:30.357Z,98.30
2019-05-12T01:45:32.172Z,98.30
2019-05-12T01:47:33.992Z,98.30
2019-05-12T01:49:38.108Z,98.30
2019-05-12T01:51:39.277Z,98.30
2019-05-12T01:53:41.008Z,98.30
2019-05-12T01:55:42.696Z,98.30
2019-05-12T01:57:44.404Z,98.30
2019-05-12T01:59:48.263Z,98.30
2019-05-12T02:01:49.972Z,98.30
2019-05-12T02:03:51.825Z,98.30
2019-05-12T02:05:57.817Z,98.30
2019-05-12T02:08:00.357Z,98.30
2019-05-12T02:10:02.748Z,98.30
2019-05-12T02:12:04.553Z,98.30
2019-05-12T02:14:09.008Z,98.30
2019-05-12T02:16:10.072Z,98.30
2019-05-12T02:18:11.757Z,98.30
2019-05-12T02:20:17.937Z,98.30
2019-05-12T02:22:19.272Z,98.30
2019-05-12T02:24:26.517Z,98.30
2019-05-12T02:26:24.600Z,98.30
2019-05-12T02:28:28.194Z,98.30
2019-05-12T02:30:30.819Z,98.30
2019-05-12T02:32:44.532Z,98.30
2019-05-12T02:34:36.565Z,98.30
2019-05-12T02:36:38.277Z,98.30
2019-05-12T02:38:39.985Z,98.30
2019-05-12T02:40:44.768Z,98.30
2019-05-12T02:42:46.518Z,98.30
2019-05-12T02:44:48.785Z,98.30
2019-05-12T02:46:50.486Z,98.30
2019-05-12T02:48:54.585Z,98.30
2019-05-12T02:50:56.213Z,98.30
2019-05-12T02:52:58.022Z,98.30
2019-05-12T02:55:01.371Z,98.30
2019-05-12T02:57:04.587Z,98.30
2019-05-12T02:59:07.329Z,98.30
2019-05-12T03:01:09.708Z,98.30
2019-05-12T03:03:14.730Z,98.30
2019-05-12T03:05:16.852Z,98.30
2019-05-12T03:07:20.170Z,98.30
2019-05-12T03:09:24.402Z,98.30
2019-05-12T03:11:27.845Z,98.30
2019-05-12T03:13:29.638Z,98.30
2019-05-12T03:15:31.482Z,98.30
2019-05-12T03:17:35.521Z,98.30
2019-05-12T03:19:37.425Z,98.30
2019-05-12T03:21:39.117Z,98.30
2019-05-12T03:23:40.810Z,98.30
2019-05-12T03:25:45.368Z,98.30
2019-05-12T03:27:46.239Z,98.30
2019-05-12T03:29:48.022Z,98.30
2019-05-12T03:31:49.839Z,98.30
2019-05-12T03:33:58.022Z,98.30
2019-05-12T03:36:00.451Z,98.30
2019-05-12T03:37:58.829Z,98.30
2019-05-12T03:40:00.547Z,98.30
2019-05-12T03:42:05.111Z,98.30
2019-05-12T03:44:06.073Z,98.30
2019-05-12T03:46:07.781Z,98.30
2019-05-12T03:48:09.626Z,98.30
2019-05-12T03:50:14.539Z,98.30
2019-05-12T03:52:15.544Z,98.30
2019-05-12T03:54:17.307Z,98.30
2019-05-12T03:56:19.123Z,98.30
2019-05-12T03:58:20.938Z,98.30
2019-05-12T04:00:24.745Z,98.30
2019-05-12T04:02:26.665Z,98.30
2019-05-12T04:04:28.549Z,98.30
2019-05-12T04:06:30.366Z,98.30
2019-05-12T04:08:34.663Z,98.30
2019-05-12T04:10:36.354Z,98.30
2019-05-12T04:12:38.637Z,98.30
2019-05-12T04:14:40.320Z,98.30
2019-05-12T04:16:44.888Z,98.30
2019-05-12T04:18:45.644Z,98.30
2019-05-12T04:20:47.440Z,98.30
2019-05-12T04:22:49.241Z,98.30
2019-05-12T04:24:50.973Z,98.30
2019-05-12T04:26:55.192Z,98.30
2019-05-12T04:28:56.309Z,98.30
2019-05-12T04:30:57.997Z,98.30
2019-05-12T04:32:59.725Z,98.30
2019-05-12T04:35:04.615Z,98.30
2019-05-12T04:37:05.226Z,98.30
2019-05-12T04:39:07.435Z,98.30
2019-05-12T04:41:09.145Z,98.30
2019-05-12T04:43:14.271Z,98.30
2019-05-12T04:45:15.845Z,98.30
2019-05-12T04:47:18.003Z,98.30
2019-05-12T04:49:19.777Z,98.30
2019-05-12T04:51:21.566Z,98.30
2019-05-12T04:53:25.191Z,98.30
2019-05-12T04:55:26.909Z,98.30
2019-05-12T04:57:28.643Z,98.30
2019-05-12T04:59:30.362Z,98.30
2019-05-12T05:01:34.632Z,98.30
2019-05-12T05:03:35.732Z,98.30
2019-05-12T05:05:37.797Z,98.30
2019-05-12T05:07:39.577Z,98.30
2019-05-12T05:09:44.122Z,98.30
2019-05-12T05:11:45.298Z,98.30
2019-05-12T05:13:47.229Z,98.30
2019-05-12T05:15:48.925Z,98.30
2019-05-12T05:17:50.636Z,98.30
2019-05-12T05:19:53.488Z,98.30
2019-05-12T05:21:55.396Z,98.30
2019-05-12T05:23:57.133Z,98.30
2019-05-12T05:25:59.001Z,98.30
2019-05-12T05:28:00.735Z,98.30
2019-05-12T05:30:03.964Z,98.30
2019-05-12T05:32:06.052Z,98.30
2019-05-12T05:34:07.844Z,98.30
2019-05-12T05:36:19.795Z,98.30
2019-05-12T05:38:20.853Z,98.30
2019-05-12T05:40:28.383Z,98.30
2019-05-12T05:42:28.411Z,98.30
2019-05-12T05:44:36.271Z,98.30
2019-05-12T05:46:33.832Z,98.30
2019-05-12T05:48:35.605Z,98.30
2019-05-12T05:50:37.354Z,98.30
2019-05-12T05:52:39.153Z,98.30
2019-05-12T05:54:40.948Z,98.30
2019-05-12T05:56:56.934Z,98.30
2019-05-12T05:58:51.678Z,98.30
2019-05-12T06:00:54.700Z,98.30
2019-05-12T06:02:54.619Z,98.30
2019-05-12T06:04:56.653Z,98.30
2019-05-12T06:06:58.427Z,98.30
2019-05-12T06:09:00.240Z,98.30
2019-05-12T06:11:04.348Z,98.30
2019-05-12T06:13:05.547Z,98.30
2019-05-12T06:15:09.038Z,98.30
2019-05-12T06:17:10.941Z,98.30
2019-05-12T06:19:14.082Z,98.30
2019-05-12T06:21:16.408Z,98.30
2019-05-12T06:23:18.142Z,98.30
2019-05-12T06:25:19.949Z,97.70
2019-05-12T06:27:21.764Z,97.80
2019-05-12T06:29:25.363Z,98.00
2019-05-12T06:31:29.831Z,97.90
2019-05-12T06:33:31.891Z,98.10
2019-05-12T06:35:42.276Z,97.40
2019-05-12T06:37:41.011Z,96.70
2019-05-12T06:39:43.555Z,96.70
2019-05-12T06:41:47.697Z,96.90
2019-05-12T06:43:49.484Z,96.90
2019-05-12T06:45:51.176Z,96.80
2019-05-12T06:47:56.133Z,96.30
2019-05-12T06:49:58.216Z,96.10
2019-05-12T06:52:03.135Z,96.20
2019-05-12T06:54:10.391Z,96.50
2019-05-12T06:56:09.501Z,96.00
2019-05-12T06:58:13.804Z,95.70
2019-05-12T07:00:15.464Z,95.80
2019-05-12T07:02:17.165Z,96.00
2019-05-12T07:04:21.273Z,96.00
2019-05-12T07:06:24.788Z,94.40
2019-05-12T07:08:31.719Z,91.60
2019-05-12T07:10:43.544Z,91.70
2019-05-12T07:12:43.668Z,91.90
2019-05-12T07:14:37.280Z,91.90
2019-05-12T07:16:39.001Z,90.60
2019-05-12T07:18:43.749Z,89.40
2019-05-12T07:20:45.624Z,89.70
2019-05-12T07:22:48.524Z,90.90
2019-05-12T07:24:52.781Z,91.40
2019-05-12T07:27:02.734Z,91.10
2019-05-12T07:28:57.980Z,90.30
2019-05-12T07:31:00.009Z,89.10
2019-05-12T07:33:04.271Z,88.00
2019-05-12T07:35:05.965Z,87.50
2019-05-12T07:37:08.793Z,87.90
2019-05-12T07:39:15.559Z,88.00
2019-05-12T07:41:23.674Z,88.20
2019-05-12T07:43:28.037Z,86.80
2019-05-12T07:45:29.846Z,86.40
2019-05-12T07:47:33.152Z,87.00
2019-05-12T07:49:38.546Z,86.80
2019-05-12T07:51:40.668Z,84.60
2019-05-12T07:53:46.903Z,83.80
2019-05-12T07:55:49.912Z,82.60
2019-05-12T07:57:58.399Z,82.60
2019-05-12T07:59:55.780Z,82.90
2019-05-12T08:01:57.588Z,83.40
2019-05-12T08:04:01.136Z,83.00
2019-05-12T08:06:04.617Z,82.60
2019-05-12T08:08:10.641Z,82.20
2019-05-12T08:10:17.735Z,82.40
2019-05-12T08:12:19.145Z,83.20
2019-05-12T08:14:25.798Z,82.50
2019-05-12T08:16:25.706Z,82.20
2019-05-12T08:18:25.085Z,82.20
2019-05-12T08:20:26.932Z,81.60
2019-05-12T08:22:29.481Z,81.20
2019-05-12T08:24:36.944Z,81.30
2019-05-12T08:26:35.244Z,81.10
2019-05-12T08:28:40.352Z,79.50
2019-05-12T08:30:47.464Z,80.30
2019-05-12T08:32:44.542Z,78.30
2019-05-12T08:34:46.297Z,79.00
2019-05-12T08:36:53.216Z,79.00
2019-05-12T08:38:53.593Z,79.60
2019-05-12T08:40:55.694Z,79.00
2019-05-12T08:42:59.498Z,77.40
2019-05-12T08:45:03.871Z,76.70
2019-05-12T08:47:04.989Z,76.20
2019-05-12T08:49:06.794Z,76.60
2019-05-12T08:51:14.021Z,77.30
2019-05-12T08:53:20.564Z,77.00
2019-05-12T08:55:16.893Z,76.90
2019-05-12T08:57:18.964Z,76.40
2019-05-12T08:59:24.994Z,76.40
2019-05-12T09:01:28.675Z,76.70
2019-05-12T09:03:30.431Z,77.00
2019-05-12T09:05:34.497Z,76.20
2019-05-12T09:07:39.832Z,75.30
2019-05-12T09:09:40.103Z,75.70
2019-05-12T09:11:43.907Z,75.80
2019-05-12T09:13:45.609Z,75.10
2019-05-12T09:15:47.325Z,74.30
2019-05-12T09:17:54.630Z,74.90
2019-05-12T09:19:55.032Z,74.70
2019-05-12T09:21:56.452Z,74.40
2019-05-12T09:23:58.200Z,75.90
2019-05-12T09:26:00.309Z,75.00
2019-05-12T09:28:03.840Z,73.90
2019-05-12T09:30:09.689Z,72.80
2019-05-12T09:32:10.205Z,70.20
2019-05-12T09:34:16.168Z,70.30
2019-05-12T09:36:19.885Z,69.20
2019-05-12T09:38:23.878Z,70.50
2019-05-12T09:40:24.704Z,70.00
2019-05-12T09:42:29.936Z,68.80
2019-05-12T09:44:30.687Z,68.70
2019-05-12T09:46:34.319Z,68.60
2019-05-12T09:48:39.052Z,67.80
2019-05-12T09:50:44.130Z,67.10
2019-05-12T09:52:44.292Z,66.30
2019-05-12T09:54:45.996Z,65.40
2019-05-12T09:56:49.913Z,66.20
2019-05-12T09:59:00.858Z,66.00
2019-05-12T10:00:54.927Z,65.20
2019-05-12T10:02:59.545Z,64.80
2019-05-12T10:05:00.865Z,64.50
2019-05-12T10:07:03.845Z,64.80
2019-05-12T10:09:08.844Z,62.70
2019-05-12T10:11:10.444Z,62.90
2019-05-12T10:13:13.819Z,62.40
2019-05-12T10:15:18.589Z,63.60
2019-05-12T10:17:20.438Z,66.10
2019-05-12T10:19:23.597Z,66.70
2019-05-12T10:21:27.933Z,66.60
2019-05-12T10:23:29.724Z,66.30
2019-05-12T10:25:33.679Z,66.10
2019-05-12T10:27:35.519Z,66.50
2019-05-12T10:29:37.260Z,64.30
2019-05-12T10:31:39.473Z,66.00
2019-05-12T10:33:43.158Z,64.00
2019-05-12T10:35:44.873Z,63.20
2019-05-12T10:37:47.379Z,63.50
2019-05-12T10:39:49.185Z,62.90
2019-05-12T10:41:50.893Z,62.80
2019-05-12T10:43:56.020Z,63.80
2019-05-12T10:45:56.241Z,64.10
2019-05-12T10:47:58.056Z,63.90
2019-05-12T10:49:59.873Z,62.90
2019-05-12T10:52:03.929Z,62.80
2019-05-12T10:54:12.214Z,62.60
2019-05-12T10:56:09.300Z,61.20
2019-05-12T10:58:11.014Z,61.10
2019-05-12T11:00:14.456Z,61.00
2019-05-12T11:02:20.329Z,61.00
2019-05-12T11:04:23.367Z,60.10
2019-05-12T11:06:24.374Z,59.50
2019-05-12T11:08:26.342Z,60.30
2019-05-12T11:10:28.145Z,59.80
2019-05-12T11:12:30.294Z,58.00
2019-05-12T11:14:34.165Z,58.40
2019-05-12T11:16:35.980Z,58.10
2019-05-12T11:18:37.689Z,59.10
2019-05-12T11:20:39.655Z,60.10
2019-05-12T11:22:41.357Z,58.90
2019-05-12T11:24:44.422Z,58.50
2019-05-12T11:26:46.460Z,57.60
2019-05-12T11:28:48.153Z,56.90
2019-05-12T11:30:49.852Z,55.40
2019-05-12T11:32:53.779Z,55.60
2019-05-12T11:34:55.112Z,55.00
2019-05-12T11:36:56.813Z,55.70
2019-05-12T11:38:58.489Z,54.70
2019-05-12T11:41:00.208Z,54.40
2019-05-12T11:43:04.082Z,52.90
2019-05-12T11:45:06.168Z,53.30
2019-05-12T11:47:07.908Z,52.70
2019-05-12T11:49:09.836Z,53.40
2019-05-12T11:51:11.523Z,54.20
2019-05-12T11:53:13.828Z,54.80
2019-05-12T11:55:15.737Z,55.50
2019-05-12T11:57:20.189Z,54.90
2019-05-12T11:59:21.072Z,53.80
2019-05-12T12:01:24.925Z,54.90
2019-05-12T12:03:26.757Z,55.20
2019-05-12T12:05:28.445Z,55.60
2019-05-12T12:07:30.156Z,55.40
2019-05-12T12:09:31.864Z,54.90
2019-05-12T12:11:34.258Z,55.00
2019-05-12T12:13:36.150Z,54.40
2019-05-12T12:15:38.019Z,55.40
2019-05-12T12:17:39.700Z,56.50
2019-05-12T12:19:46.723Z,56.00
2019-05-12T12:21:48.033Z,54.70
2019-05-12T12:23:50.235Z,54.10
2019-05-12T12:25:53.514Z,53.30
2019-05-12T12:27:55.564Z,50.00
2019-05-12T12:29:57.240Z,52.30
2019-05-12T12:31:59.032Z,53.70
2019-05-12T12:34:00.760Z,53.50
2019-05-12T12:36:04.101Z,53.40
2019-05-12T12:38:06.036Z,54.00
2019-05-12T12:40:08.286Z,52.10
2019-05-12T12:42:09.965Z,51.80
2019-05-12T12:44:13.529Z,51.60
2019-05-12T12:46:24.251Z,51.30
2019-05-12T12:48:29.792Z,52.20
2019-05-12T12:50:30.697Z,51.70
2019-05-12T12:52:33.586Z,51.30
2019-05-12T12:54:35.486Z,51.20
2019-05-12T12:56:37.160Z,50.80
2019-05-12T12:58:38.848Z,51.00
2019-05-12T13:00:47.279Z,51.40
2019-05-12T13:02:48.968Z,53.00
2019-05-12T13:04:50.380Z,51.80
2019-05-12T13:06:54.230Z,50.30
2019-05-12T13:08:55.466Z,50.40
2019-05-12T13:10:57.236Z,51.10
2019-05-12T13:13:00.959Z,50.40
2019-05-12T13:15:03.848Z,48.70
2019-05-12T13:17:05.788Z,49.40
2019-05-12T13:19:12.430Z,49.00
2019-05-12T13:21:13.704Z,49.70
2019-05-12T13:23:15.144Z,49.70
2019-05-12T13:25:16.950Z,49.90
2019-05-12T13:27:19.067Z,48.70
2019-05-12T13:29:26.365Z,47.80
2019-05-12T13:31:26.009Z,47.20
2019-05-12T13:33:27.692Z,46.50
2019-05-12T13:35:29.464Z,47.30
2019-05-12T13:37:31.182Z,47.00
2019-05-12T13:39:33.574Z,47.00
2019-05-12T13:41:35.473Z,47.40
2019-05-12T13:43:37.217Z,47.30
2019-05-12T13:45:39.004Z,47.00
2019-05-12T13:47:40.679Z,48.00
2019-05-12T13:49:46.816Z,49.40
2019-05-12T13:51:48.277Z,49.70
2019-05-12T13:53:50.359Z,50.80
2019-05-12T13:55:54.266Z,50.70
2019-05-12T13:57:57.628Z,49.60
2019-05-12T14:00:06.853Z,50.30
2019-05-12T14:02:03.580Z,48.60
2019-05-12T14:04:05.497Z,48.40
2019-05-12T14:06:07.237Z,47.90
2019-05-12T14:08:08.933Z,48.60
2019-05-12T14:10:10.857Z,48.30
2019-05-12T14:12:13.559Z,49.10
2019-05-12T14:21:04.168Z,50.50
2019-05-12T14:28:39.425Z,50.00
2019-05-12T14:30:47.411Z,48.60
2019-05-12T14:32:49.367Z,48.70
2019-05-12T14:34:51.019Z,49.70
2019-05-12T14:37:04.860Z,50.30
2019-05-12T14:39:00.157Z,49.30
2019-05-12T14:41:01.460Z,49.10
2019-05-12T14:43:04.887Z,48.10
2019-05-12T14:45:07.194Z,46.00
2019-05-12T14:47:08.982Z,46.80
2019-05-12T14:49:10.994Z,48.10
2019-05-12T14:51:14.076Z,49.00
2019-05-12T14:53:16.174Z,49.40
2019-05-12T14:55:18.393Z,50.50
2019-05-12T14:57:20.305Z,52.20
2019-05-12T14:59:24.342Z,53.90
2019-05-12T15:01:38.478Z,53.70
2019-05-12T15:03:30.296Z,54.80
2019-05-12T15:05:32.338Z,55.50
2019-05-12T15:07:44.586Z,54.70
2019-05-12T15:09:40.649Z,55.60
2019-05-12T15:11:43.787Z,56.40
2019-05-12T15:13:45.936Z,56.90
2019-05-12T15:15:50.062Z,56.90
2019-05-12T15:17:56.655Z,58.00
2019-05-12T15:20:00.294Z,58.20
2019-05-12T15:22:06.637Z,58.40
2019-05-12T15:24:09.278Z,58.70
2019-05-12T15:26:09.657Z,58.80
2019-05-12T15:30:43.738Z,58.80
2019-05-12T15:32:45.770Z,59.20
2019-05-12T15:34:49.551Z,59.70
2019-05-12T15:36:55.465Z,59.40
2019-05-12T15:38:58.719Z,58.70
2019-05-12T15:40:58.950Z,59.80
2019-05-12T15:43:05.184Z,59.90
2019-05-12T15:45:06.640Z,60.50
2019-05-12T15:56:33.083Z,60.40
2019-05-12T15:58:34.950Z,59.90
2019-05-12T16:00:38.443Z,60.20
2019-05-12T16:02:40.341Z,60.90
2019-05-12T16:04:43.110Z,60.40
2019-05-12T16:06:53.451Z,60.90
2019-05-12T16:08:53.470Z,61.30
2019-05-12T16:10:56.199Z,60.40
2019-05-12T16:12:58.149Z,60.80
2019-05-12T16:14:59.915Z,60.40
2019-05-12T16:17:04.305Z,60.30
2019-05-12T16:19:05.622Z,60.10
2019-05-12T16:21:09.448Z,60.20
2019-05-12T16:23:17.235Z,59.60
2019-05-12T16:25:15.606Z,59.70
2019-05-12T16:27:17.383Z,60.00
2019-05-12T16:29:19.353Z,60.40
2019-05-12T16:31:23.120Z,60.90
2019-05-12T16:33:24.963Z,61.50
2019-05-12T16:35:31.441Z,61.60
2019-05-12T16:37:34.959Z,60.90
2019-05-12T16:39:37.035Z,60.80
2019-05-12T16:41:37.767Z,61.30
2019-05-12T16:43:39.501Z,62.20
2019-05-12T16:45:41.205Z,62.10
2019-05-12T16:47:44.747Z,62.30
2019-05-12T16:49:46.921Z,62.60
2019-05-12T16:51:48.969Z,61.60
2019-05-12T16:53:50.953Z,60.90
2019-05-12T16:55:53.307Z,61.60
2019-05-12T16:57:56.177Z,62.00
2019-05-12T17:00:03.537Z,62.00
2019-05-12T17:02:05.506Z,63.70
2019-05-12T17:04:05.474Z,63.40
2019-05-12T17:06:07.468Z,63.50
2019-05-12T17:08:09.176Z,63.60
2019-05-12T17:10:14.641Z,62.70
2019-05-12T17:12:14.990Z,63.30
2019-05-12T17:14:16.919Z,64.30
2019-05-12T17:16:18.721Z,64.40
2019-05-12T17:18:20.457Z,64.50
2019-05-12T17:20:22.184Z,64.80
2019-05-12T17:22:24.038Z,65.30
2019-05-12T17:24:25.805Z,65.90
2019-05-12T17:26:27.513Z,66.20
2019-05-12T17:28:29.252Z,66.20
2019-05-12T17:30:31.058Z,66.60
2019-05-12T17:32:32.814Z,66.90
2019-05-12T17:34:34.593Z,67.70
2019-05-12T17:36:36.363Z,67.50
2019-05-12T17:38:38.105Z,68.20
2019-05-12T17:40:39.992Z,68.80
2019-05-12T17:42:44.306Z,68.90
2019-05-12T17:44:45.333Z,69.30
2019-05-12T17:46:47.137Z,69.40
2019-05-12T17:48:53.274Z,68.50
2019-05-12T17:50:55.056Z,68.60
2019-05-12T17:53:00.439Z,68.70
2019-05-12T17:55:08.885Z,68.80
2019-05-12T17:57:04.156Z,69.20
2019-05-12T17:59:05.898Z,70.10
2019-05-12T18:01:07.778Z,70.10
2019-05-12T18:03:18.495Z,69.20
2019-05-12T18:05:15.412Z,68.60
2019-05-12T18:07:19.239Z,68.80
2019-05-12T18:09:20.973Z,68.30
2019-05-12T18:11:23.883Z,68.30
2019-05-12T18:13:28.184Z,68.00
2019-05-12T18:15:33.235Z,68.30
2019-05-12T18:17:33.919Z,69.00
2019-05-12T18:19:35.746Z,69.50
2019-05-12T18:21:37.486Z,69.70
2019-05-12T18:23:39.186Z,69.60
2019-05-12T18:25:40.901Z,69.50
2019-05-12T18:27:48.924Z,70.00
2019-05-12T18:29:46.273Z,70.00
2019-05-12T18:31:47.980Z,69.90
2019-05-12T18:33:53.655Z,69.70
2019-05-12T18:35:54.481Z,69.90
2019-05-12T18:37:56.481Z,69.80
2019-05-12T18:39:58.330Z,70.20
2019-05-12T18:42:00.050Z,70.60
2019-05-12T18:44:04.281Z,70.60
2019-05-12T18:46:09.055Z,70.70
2019-05-12T18:48:17.884Z,71.40
2019-05-12T18:50:14.401Z,71.00
2019-05-12T18:52:16.276Z,71.30
2019-05-12T18:54:18.075Z,71.30
2019-05-12T18:56:21.724Z,71.10
2019-05-12T18:58:30.840Z,70.80
2019-05-12T19:00:27.453Z,70.50
2019-05-12T19:02:29.351Z,70.40
2019-05-12T19:04:33.934Z,70.50
2019-05-12T19:06:34.994Z,70.00
2019-05-12T19:08:36.911Z,70.70
2019-05-12T19:10:44.226Z,70.50
2019-05-12T19:12:43.903Z,70.80
2019-05-12T19:14:51.918Z,71.40
2019-05-12T19:16:59.681Z,71.40
2019-05-12T19:19:03.801Z,71.10
2019-05-12T19:21:10.212Z,71.40
2019-05-12T19:23:11.081Z,71.70
2019-05-12T19:25:24.004Z,72.10
2019-05-12T19:27:23.929Z,72.50
2019-05-12T19:29:29.732Z,73.10
2019-05-12T19:31:33.367Z,73.80
2019-05-12T19:33:35.784Z,74.20
2019-05-12T19:35:38.159Z,74.60
2019-05-12T19:37:42.409Z,75.00
2019-05-12T19:39:44.613Z,75.50
2019-05-12T19:41:48.140Z,76.10
2019-05-12T19:43:53.397Z,76.30
2019-05-12T19:46:02.902Z,77.10
2019-05-12T19:48:00.104Z,77.20
2019-05-12T19:50:08.860Z,77.70
2019-05-12T19:52:05.709Z,78.00
2019-05-12T19:54:07.634Z,78.20
2019-05-12T19:56:09.502Z,78.70
2019-05-12T19:58:12.645Z,79.40
2019-05-12T20:00:15.127Z,79.80
2019-05-12T20:02:16.855Z,80.10
2019-05-12T20:04:32.670Z,80.60
2019-05-12T20:06:24.350Z,80.90
2019-05-12T20:08:26.026Z,81.40
2019-05-12T20:10:27.763Z,81.60
2019-05-12T20:12:29.509Z,81.90
2019-05-12T20:14:31.248Z,82.30
2019-05-12T20:16:34.615Z,83.00
2019-05-12T20:18:42.631Z,83.00
2019-05-12T20:20:43.968Z,83.00
2019-05-12T20:22:44.184Z,83.10
2019-05-12T20:24:46.094Z,83.30
2019-05-12T20:26:47.797Z,83.30
2019-05-12T20:28:50.702Z,83.60
2019-05-12T20:31:01.005Z,83.60
2019-05-12T20:32:56.821Z,83.70
2019-05-12T20:34:58.637Z,84.00
2019-05-12T20:37:07.571Z,84.40
2019-05-12T20:39:09.917Z,84.90
2019-05-12T20:41:10.913Z,85.20
2019-05-12T20:43:14.721Z,85.40
2019-05-12T20:45:17.087Z,85.90
2019-05-12T20:47:18.801Z,86.10
2019-05-12T20:49:20.590Z,86.30
2019-05-12T20:51:24.386Z,86.70
2019-05-12T20:53:31.776Z,86.80
2019-05-12T20:55:30.119Z,86.80
2019-05-12T20:57:34.563Z,87.30
2019-05-12T20:59:36.733Z,87.70
2019-05-12T21:01:38.451Z,87.90
2019-05-12T21:03:46.403Z,88.20
2019-05-12T21:05:43.798Z,88.60
2019-05-12T21:07:45.611Z,89.10
2019-05-12T21:09:47.311Z,89.00
2019-05-12T21:11:49.115Z,89.10
2019-05-12T21:13:50.846Z,89.30
2019-05-12T21:15:53.974Z,89.70
2019-05-12T21:18:02.467Z,89.90
2019-05-12T21:19:59.630Z,89.90
2019-05-12T21:22:03.308Z,90.10
2019-05-12T21:24:05.215Z,89.80
2019-05-12T21:26:07.492Z,89.70
2019-05-12T21:28:09.257Z,89.40
2019-05-12T21:30:14.272Z,89.80
2019-05-12T21:32:16.997Z,90.00
2019-05-12T21:34:21.075Z,90.20
2019-05-12T21:36:24.981Z,90.30
2019-05-12T21:38:29.626Z,90.50
2019-05-12T21:40:30.666Z,90.40
2019-05-12T21:42:33.848Z,90.30
2019-05-12T21:44:35.860Z,90.80
2019-05-12T21:46:38.346Z,91.10
2019-05-12T21:48:40.354Z,91.20
2019-05-12T21:50:44.251Z,91.70
2019-05-12T21:52:45.793Z,91.80
2019-05-12T21:54:47.633Z,91.90
2019-05-12T21:56:49.563Z,92.10
2019-05-12T21:58:56.513Z,92.30
2019-05-12T22:01:03.903Z,92.80
2019-05-12T22:03:08.266Z,92.90
2019-05-12T22:05:07.314Z,93.50
2019-05-12T22:07:09.286Z,93.70
2019-05-12T22:09:11.202Z,93.80
2019-05-12T22:11:13.285Z,93.90
2019-05-12T22:13:17.941Z,93.70
2019-05-12T22:15:21.357Z,93.80
2019-05-12T22:17:23.946Z,94.10
2019-05-12T22:19:30.873Z,94.10
2019-05-12T22:21:29.401Z,93.70
2019-05-12T22:23:33.157Z,93.60
2019-05-12T22:25:34.917Z,93.70
2019-05-12T22:27:36.725Z,93.90
2019-05-12T22:29:38.777Z,94.30
2019-05-12T22:31:44.965Z,94.30
2019-05-12T22:33:51.640Z,94.60
2019-05-12T22:36:00.719Z,94.80
2019-05-12T22:37:53.582Z,95.10
2019-05-12T22:39:55.074Z,95.20
2019-05-12T22:41:56.935Z,95.40
2019-05-12T22:43:58.651Z,95.40
2019-05-12T22:46:00.380Z,95.70
2019-05-12T22:48:04.149Z,95.80
2019-05-12T22:50:05.916Z,95.90
2019-05-12T22:52:07.725Z,96.10
2019-05-12T22:54:10.709Z,96.30
2019-05-12T22:56:17.816Z,96.40
2019-05-12T22:58:20.632Z,96.40
2019-05-12T23:00:21.648Z,96.30
2019-05-12T23:02:29.929Z,96.50
2019-05-12T23:04:35.343Z,96.80
2019-05-12T23:06:35.890Z,96.70
2019-05-12T23:08:38.690Z,96.70
2019-05-12T23:10:41.523Z,97.00
2019-05-12T23:12:44.107Z,97.60
2019-05-12T23:14:45.881Z,98.20
2019-05-12T23:16:47.617Z,98.30
2019-05-12T23:18:49.325Z,98.30
2019-05-12T23:20:51.069Z,98.30
2019-05-12T23:22:54.421Z,98.30
2019-05-12T23:24:56.389Z,98.30
2019-05-12T23:26:58.188Z,98.30
2019-05-12T23:28:59.912Z,98.30
2019-05-12T23:31:04.123Z,98.30
2019-05-12T23:33:05.427Z,98.30
2019-05-12T23:35:07.430Z,98.30
2019-05-12T23:37:09.252Z,98.30
2019-05-12T23:39:10.958Z,98.30
2019-05-12T23:41:13.548Z,98.30
2019-05-12T23:43:15.709Z,98.30
2019-05-12T23:45:17.522Z,98.30
2019-05-12T23:47:19.226Z,98.30
2019-05-12T23:49:20.958Z,98.30
2019-05-12T23:51:23.595Z,98.30
2019-05-12T23:53:25.421Z,98.30
2019-05-12T23:55:27.138Z,98.30
2019-05-12T23:57:28.863Z,98.30
2019-05-12T23:59:30.579Z,98.30
